sensor_id;sensor_type;location;lat;lon;timestamp;temperature;humidity
51873;DHT22;52863;52.504;13.480;2022-09-13T00:00:36;12.70;99.90
51873;DHT22;52863;52.504;13.480;2022-09-13T00:03:03;12.80;99.90
51873;DHT22;52863;52.504;13.480;2022-09-13T00:12:53;12.70;99.90
51873;DHT22;52863;52.504;13.480;2022-09-13T00:25:09;12.70;99.90
51873;DHT22;52863;52.504;13.480;2022-09-13T00:27:36;12.60;99.90
51873;DHT22;52863;52.504;13.480;2022-09-13T00:30:04;12.50;99.90
51873;DHT22;52863;52.504;13.480;2022-09-13T00:32:33;12.60;99.90
51873;DHT22;52863;52.504;13.480;2022-09-13T00:39:54;12.50;99.90
51873;DHT22;52863;52.504;13.480;2022-09-13T00:42:24;12.50;99.90
51873;DHT22;52863;52.504;13.480;2022-09-13T00:44:55;12.60;99.90
51873;DHT22;52863;52.504;13.480;2022-09-13T00:47:27;12.60;99.90
51873;DHT22;52863;52.504;13.480;2022-09-13T00:49:58;12.50;99.90
51873;DHT22;52863;52.504;13.480;2022-09-13T00:52:28;12.50;99.90
51873;DHT22;52863;52.504;13.480;2022-09-13T00:55:01;12.50;99.90
51873;DHT22;52863;52.504;13.480;2022-09-13T00:57:28;12.30;99.90
51873;DHT22;52863;52.504;13.480;2022-09-13T01:00:00;12.90;99.90
51873;DHT22;52863;52.504;13.480;2022-09-13T01:02:31;12.60;99.90
51873;DHT22;52863;52.504;13.480;2022-09-13T01:09:52;12.50;99.90
51873;DHT22;52863;52.504;13.480;2022-09-13T01:12:28;12.50;99.90
51873;DHT22;52863;52.504;13.480;2022-09-13T01:14:58;12.40;99.90
51873;DHT22;52863;52.504;13.480;2022-09-13T01:17:27;12.40;99.90
51873;DHT22;52863;52.504;13.480;2022-09-13T01:19:55;12.40;99.90
51873;DHT22;52863;52.504;13.480;2022-09-13T01:29:02;12.60;99.90
51873;DHT22;52863;52.504;13.480;2022-09-13T01:31:40;12.30;99.90
51873;DHT22;52863;52.504;13.480;2022-09-13T01:34:20;12.30;99.90
51873;DHT22;52863;52.504;13.480;2022-09-13T01:37:14;12.40;99.90
51873;DHT22;52863;52.504;13.480;2022-09-13T01:39:56;12.20;99.90
51873;DHT22;52863;52.504;13.480;2022-09-13T01:42:35;12.20;99.90
51873;DHT22;52863;52.504;13.480;2022-09-13T01:45:14;12.20;99.90
51873;DHT22;52863;52.504;13.480;2022-09-13T01:47:51;12.20;99.90
51873;DHT22;52863;52.504;13.480;2022-09-13T01:50:24;12.10;99.90
51873;DHT22;52863;52.504;13.480;2022-09-13T01:52:56;12.30;99.90
51873;DHT22;52863;52.504;13.480;2022-09-13T01:55:32;12.20;99.90
51873;DHT22;52863;52.504;13.480;2022-09-13T01:58:07;12.10;99.90
51873;DHT22;52863;52.504;13.480;2022-09-13T02:00:39;12.10;99.90
51873;DHT22;52863;52.504;13.480;2022-09-13T02:03:10;12.10;99.90
51873;DHT22;52863;52.504;13.480;2022-09-13T02:05:41;12.00;99.90
51873;DHT22;52863;52.504;13.480;2022-09-13T02:08:13;12.00;99.90
51873;DHT22;52863;52.504;13.480;2022-09-13T02:10:44;11.90;99.90
51873;DHT22;52863;52.504;13.480;2022-09-13T02:13:16;12.10;99.90
51873;DHT22;52863;52.504;13.480;2022-09-13T02:15:45;12.00;99.90
51873;DHT22;52863;52.504;13.480;2022-09-13T02:18:17;11.80;99.90
51873;DHT22;52863;52.504;13.480;2022-09-13T02:20:48;11.90;99.90
51873;DHT22;52863;52.504;13.480;2022-09-13T02:23:19;11.90;99.90
51873;DHT22;52863;52.504;13.480;2022-09-13T02:25:48;11.90;99.90
51873;DHT22;52863;52.504;13.480;2022-09-13T02:28:20;11.90;99.90
51873;DHT22;52863;52.504;13.480;2022-09-13T02:30:50;11.90;99.90
51873;DHT22;52863;52.504;13.480;2022-09-13T02:33:23;13.80;99.90
51873;DHT22;52863;52.504;13.480;2022-09-13T02:35:53;11.90;99.90
51873;DHT22;52863;52.504;13.480;2022-09-13T02:38:25;11.90;99.90
51873;DHT22;52863;52.504;13.480;2022-09-13T02:40:57;11.80;99.90
51873;DHT22;52863;52.504;13.480;2022-09-13T02:43:28;11.80;99.90
51873;DHT22;52863;52.504;13.480;2022-09-13T02:46:04;11.80;99.90
51873;DHT22;52863;52.504;13.480;2022-09-13T02:48:46;11.90;99.90
51873;DHT22;52863;52.504;13.480;2022-09-13T02:51:20;11.90;99.90
51873;DHT22;52863;52.504;13.480;2022-09-13T02:53:54;12.00;99.90
51873;DHT22;52863;52.504;13.480;2022-09-13T02:56:29;12.00;99.90
51873;DHT22;52863;52.504;13.480;2022-09-13T02:59:03;12.00;99.90
51873;DHT22;52863;52.504;13.480;2022-09-13T03:03:59;12.00;99.90
51873;DHT22;52863;52.504;13.480;2022-09-13T03:06:27;12.00;99.90
51873;DHT22;52863;52.504;13.480;2022-09-13T03:08:56;12.00;99.90
51873;DHT22;52863;52.504;13.480;2022-09-13T03:11:31;12.00;99.90
51873;DHT22;52863;52.504;13.480;2022-09-13T03:14:14;12.10;99.90
51873;DHT22;52863;52.504;13.480;2022-09-13T03:17:00;12.00;99.90
51873;DHT22;52863;52.504;13.480;2022-09-13T03:19:47;12.10;99.90
51873;DHT22;52863;52.504;13.480;2022-09-13T03:22:31;12.10;99.90
51873;DHT22;52863;52.504;13.480;2022-09-13T03:25:05;12.30;99.90
51873;DHT22;52863;52.504;13.480;2022-09-13T03:27:37;9.60;99.90
51873;DHT22;52863;52.504;13.480;2022-09-13T03:30:08;12.20;99.90
51873;DHT22;52863;52.504;13.480;2022-09-13T03:32:42;12.20;99.90
51873;DHT22;52863;52.504;13.480;2022-09-13T03:35:21;12.20;99.90
51873;DHT22;52863;52.504;13.480;2022-09-13T03:37:55;12.10;99.90
51873;DHT22;52863;52.504;13.480;2022-09-13T03:40:29;12.10;99.90
51873;DHT22;52863;52.504;13.480;2022-09-13T03:43:02;12.10;99.90
51873;DHT22;52863;52.504;13.480;2022-09-13T03:45:32;12.00;99.90
51873;DHT22;52863;52.504;13.480;2022-09-13T03:48:02;12.20;99.90
51873;DHT22;52863;52.504;13.480;2022-09-13T03:50:30;12.00;99.90
51873;DHT22;52863;52.504;13.480;2022-09-13T03:53:01;12.10;99.90
51873;DHT22;52863;52.504;13.480;2022-09-13T03:55:29;12.10;99.90
51873;DHT22;52863;52.504;13.480;2022-09-13T04:00:24;12.30;99.90
51873;DHT22;52863;52.504;13.480;2022-09-13T04:07:45;12.30;99.90
51873;DHT22;52863;52.504;13.480;2022-09-13T04:10:12;12.30;99.90
51873;DHT22;52863;52.504;13.480;2022-09-13T04:12:39;12.30;99.90
51873;DHT22;52863;52.504;13.480;2022-09-13T04:15:07;13.90;99.90
51873;DHT22;52863;52.504;13.480;2022-09-13T04:24:57;12.60;99.90
51873;DHT22;52863;52.504;13.480;2022-09-13T04:42:10;12.60;99.90
51873;DHT22;52863;52.504;13.480;2022-09-13T04:47:05;12.70;99.90
51873;DHT22;52863;52.504;13.480;2022-09-13T04:59:23;12.90;99.90
51873;DHT22;52863;52.504;13.480;2022-09-13T05:09:15;13.10;99.90
51873;DHT22;52863;52.504;13.480;2022-09-13T05:14:09;13.30;99.90
51873;DHT22;52863;52.504;13.480;2022-09-13T05:16:37;13.30;99.90
51873;DHT22;52863;52.504;13.480;2022-09-13T05:26:26;13.50;99.90
51873;DHT22;52863;52.504;13.480;2022-09-13T05:31:23;13.60;99.90
51873;DHT22;52863;52.504;13.480;2022-09-13T05:33:54;13.60;99.90
51873;DHT22;52863;52.504;13.480;2022-09-13T05:46:10;13.90;99.90
51873;DHT22;52863;52.504;13.480;2022-09-13T05:51:07;13.80;99.90
51873;DHT22;52863;52.504;13.480;2022-09-13T05:53:35;13.80;99.90
51873;DHT22;52863;52.504;13.480;2022-09-13T05:56:05;13.90;99.90
51873;DHT22;52863;52.504;13.480;2022-09-13T05:58:37;13.80;99.90
51873;DHT22;52863;52.504;13.480;2022-09-13T06:01:04;13.90;99.90
51873;DHT22;52863;52.504;13.480;2022-09-13T06:08:27;13.80;99.90
51873;DHT22;52863;52.504;13.480;2022-09-13T06:10:55;13.80;99.90
51873;DHT22;52863;52.504;13.480;2022-09-13T06:25:38;13.80;99.90
51873;DHT22;52863;52.504;13.480;2022-09-13T06:40:24;13.70;99.90
51873;DHT22;52863;52.504;13.480;2022-09-13T06:42:55;13.60;99.90
51873;DHT22;52863;52.504;13.480;2022-09-13T06:45:25;13.80;99.90
51873;DHT22;52863;52.504;13.480;2022-09-13T06:47:52;13.80;99.90
51873;DHT22;52863;52.504;13.480;2022-09-13T06:55:15;14.20;99.90
51873;DHT22;52863;52.504;13.480;2022-09-13T07:00:11;14.60;99.90
51873;DHT22;52863;52.504;13.480;2022-09-13T07:05:08;14.40;99.90
51873;DHT22;52863;52.504;13.480;2022-09-13T07:10:05;14.70;99.90
51873;DHT22;52863;52.504;13.480;2022-09-13T07:17:27;14.90;99.90
51873;DHT22;52863;52.504;13.480;2022-09-13T07:34:40;15.00;99.90
51873;DHT22;52863;52.504;13.480;2022-09-13T07:51:55;15.40;99.90
51873;DHT22;52863;52.504;13.480;2022-09-13T07:59:17;15.60;99.90
51873;DHT22;52863;52.504;13.480;2022-09-13T08:01:48;15.60;99.90
51873;DHT22;52863;52.504;13.480;2022-09-13T08:04:17;15.70;99.90
51873;DHT22;52863;52.504;13.480;2022-09-13T08:09:14;15.90;99.90
51873;DHT22;52863;52.504;13.480;2022-09-13T08:11:42;16.10;99.90
51873;DHT22;52863;52.504;13.480;2022-09-13T08:14:14;16.10;99.90
51873;DHT22;52863;52.504;13.480;2022-09-13T08:19:12;16.10;99.90
51873;DHT22;52863;52.504;13.480;2022-09-13T08:21:43;16.40;99.90
51873;DHT22;52863;52.504;13.480;2022-09-13T08:24:14;16.60;99.90
51873;DHT22;52863;52.504;13.480;2022-09-13T08:26:44;16.90;99.90
51873;DHT22;52863;52.504;13.480;2022-09-13T08:29:12;17.10;99.90
51873;DHT22;52863;52.504;13.480;2022-09-13T08:34:08;17.50;99.90
51873;DHT22;52863;52.504;13.480;2022-09-13T08:39:10;17.70;99.90
51873;DHT22;52863;52.504;13.480;2022-09-13T08:42:04;17.60;99.90
51873;DHT22;52863;52.504;13.480;2022-09-13T08:44:40;17.60;99.90
51873;DHT22;52863;52.504;13.480;2022-09-13T08:47:33;17.70;99.90
51873;DHT22;52863;52.504;13.480;2022-09-13T08:50:12;17.90;99.90
51873;DHT22;52863;52.504;13.480;2022-09-13T08:52:46;18.50;99.90
51873;DHT22;52863;52.504;13.480;2022-09-13T08:55:23;19.00;99.90
51873;DHT22;52863;52.504;13.480;2022-09-13T08:57:56;19.50;99.90
51873;DHT22;52863;52.504;13.480;2022-09-13T09:00:29;20.30;99.90
51873;DHT22;52863;52.504;13.480;2022-09-13T09:03:14;21.40;99.90
51873;DHT22;52863;52.504;13.480;2022-09-13T09:05:45;21.30;99.90
51873;DHT22;52863;52.504;13.480;2022-09-13T09:08:17;21.20;99.90
51873;DHT22;52863;52.504;13.480;2022-09-13T09:10:47;21.10;99.90
51873;DHT22;52863;52.504;13.480;2022-09-13T09:13:24;21.10;99.90
51873;DHT22;52863;52.504;13.480;2022-09-13T09:15:55;21.00;99.90
51873;DHT22;52863;52.504;13.480;2022-09-13T09:18:28;21.20;99.90
51873;DHT22;52863;52.504;13.480;2022-09-13T09:21:00;21.50;99.90
51873;DHT22;52863;52.504;13.480;2022-09-13T09:23:30;21.70;99.90
51873;DHT22;52863;52.504;13.480;2022-09-13T09:26:14;22.80;99.90
51873;DHT22;52863;52.504;13.480;2022-09-13T09:28:43;23.60;99.90
51873;DHT22;52863;52.504;13.480;2022-09-13T09:31:15;24.60;99.90
51873;DHT22;52863;52.504;13.480;2022-09-13T09:33:55;25.10;99.90
51873;DHT22;52863;52.504;13.480;2022-09-13T09:36:30;25.00;99.90
51873;DHT22;52863;52.504;13.480;2022-09-13T09:41:29;25.20;99.90
51873;DHT22;52863;52.504;13.480;2022-09-13T09:44:13;25.20;99.90
51873;DHT22;52863;52.504;13.480;2022-09-13T09:46:42;24.70;99.90
51873;DHT22;52863;52.504;13.480;2022-09-13T09:49:15;25.00;99.90
51873;DHT22;52863;52.504;13.480;2022-09-13T09:51:57;26.20;99.90
51873;DHT22;52863;52.504;13.480;2022-09-13T09:54:26;26.80;99.90
51873;DHT22;52863;52.504;13.480;2022-09-13T09:56:56;27.00;99.90
51873;DHT22;52863;52.504;13.480;2022-09-13T09:59:32;27.30;99.90
51873;DHT22;52863;52.504;13.480;2022-09-13T10:02:00;26.10;99.90
51873;DHT22;52863;52.504;13.480;2022-09-13T10:04:39;26.20;99.90
51873;DHT22;52863;52.504;13.480;2022-09-13T10:07:16;25.90;99.90
51873;DHT22;52863;52.504;13.480;2022-09-13T10:09:56;25.90;99.90
51873;DHT22;52863;52.504;13.480;2022-09-13T10:12:28;26.30;99.90
51873;DHT22;52863;52.504;13.480;2022-09-13T10:15:06;26.70;99.90
51873;DHT22;52863;52.504;13.480;2022-09-13T10:20:21;26.20;99.90
51873;DHT22;52863;52.504;13.480;2022-09-13T10:23:17;25.60;99.90
51873;DHT22;52863;52.504;13.480;2022-09-13T10:25:55;25.10;99.90
51873;DHT22;52863;52.504;13.480;2022-09-13T10:28:23;24.80;99.90
51873;DHT22;52863;52.504;13.480;2022-09-13T10:30:55;24.60;99.90
51873;DHT22;52863;52.504;13.480;2022-09-13T10:33:31;24.40;99.90
51873;DHT22;52863;52.504;13.480;2022-09-13T10:36:01;24.10;99.90
51873;DHT22;52863;52.504;13.480;2022-09-13T10:38:31;24.00;99.90
51873;DHT22;52863;52.504;13.480;2022-09-13T10:41:00;24.10;99.90
51873;DHT22;52863;52.504;13.480;2022-09-13T10:43:29;25.00;99.90
51873;DHT22;52863;52.504;13.480;2022-09-13T10:45:57;25.60;99.90
51873;DHT22;52863;52.504;13.480;2022-09-13T10:51:03;24.90;99.90
51873;DHT22;52863;52.504;13.480;2022-09-13T10:53:35;24.70;99.90
51873;DHT22;52863;52.504;13.480;2022-09-13T10:56:03;23.90;99.90
51873;DHT22;52863;52.504;13.480;2022-09-13T11:01:29;23.40;99.90
51873;DHT22;52863;52.504;13.480;2022-09-13T11:04:35;23.00;99.90
51873;DHT22;52863;52.504;13.480;2022-09-13T11:07:15;22.70;99.90
51873;DHT22;52863;52.504;13.480;2022-09-13T11:09:46;22.40;99.90
51873;DHT22;52863;52.504;13.480;2022-09-13T11:12:18;22.10;99.90
51873;DHT22;52863;52.504;13.480;2022-09-13T11:14:58;21.90;99.90
51873;DHT22;52863;52.504;13.480;2022-09-13T11:17:40;21.80;99.90
51873;DHT22;52863;52.504;13.480;2022-09-13T11:20:19;21.70;99.90
51873;DHT22;52863;52.504;13.480;2022-09-13T11:23:17;21.80;99.90
51873;DHT22;52863;52.504;13.480;2022-09-13T11:28:53;21.30;99.90
51873;DHT22;52863;52.504;13.480;2022-09-13T11:31:36;21.20;99.90
51873;DHT22;52863;52.504;13.480;2022-09-13T11:34:15;21.00;99.90
51873;DHT22;52863;52.504;13.480;2022-09-13T11:36:54;20.90;99.90
51873;DHT22;52863;52.504;13.480;2022-09-13T11:39:30;20.90;99.90
51873;DHT22;52863;52.504;13.480;2022-09-13T11:42:07;20.80;99.90
51873;DHT22;52863;52.504;13.480;2022-09-13T11:47:47;20.60;99.90
51873;DHT22;52863;52.504;13.480;2022-09-13T11:50:27;20.10;99.90
51873;DHT22;52863;52.504;13.480;2022-09-13T11:53:07;20.50;99.90
51873;DHT22;52863;52.504;13.480;2022-09-13T11:55:42;20.50;99.90
51873;DHT22;52863;52.504;13.480;2022-09-13T11:58:14;20.50;99.90
51873;DHT22;52863;52.504;13.480;2022-09-13T12:00:46;20.40;99.90
51873;DHT22;52863;52.504;13.480;2022-09-13T12:03:19;20.40;99.90
51873;DHT22;52863;52.504;13.480;2022-09-13T12:05:52;20.30;99.90
51873;DHT22;52863;52.504;13.480;2022-09-13T12:08:22;20.30;99.90
51873;DHT22;52863;52.504;13.480;2022-09-13T12:10:52;20.30;99.90
51873;DHT22;52863;52.504;13.480;2022-09-13T12:13:21;20.30;99.90
51873;DHT22;52863;52.504;13.480;2022-09-13T12:15:52;20.20;99.90
51873;DHT22;52863;52.504;13.480;2022-09-13T12:18:24;20.30;99.90
51873;DHT22;52863;52.504;13.480;2022-09-13T12:20:54;20.30;99.90
51873;DHT22;52863;52.504;13.480;2022-09-13T12:23:27;20.30;99.90
51873;DHT22;52863;52.504;13.480;2022-09-13T12:25:58;20.30;99.90
51873;DHT22;52863;52.504;13.480;2022-09-13T12:28:33;20.30;99.90
51873;DHT22;52863;52.504;13.480;2022-09-13T12:31:04;20.40;99.90
51873;DHT22;52863;52.504;13.480;2022-09-13T12:33:32;20.30;99.90
51873;DHT22;52863;52.504;13.480;2022-09-13T12:36:21;20.20;99.90
51873;DHT22;52863;52.504;13.480;2022-09-13T12:39:20;20.20;99.90
51873;DHT22;52863;52.504;13.480;2022-09-13T12:42:07;19.90;99.90
51873;DHT22;52863;52.504;13.480;2022-09-13T12:44:58;19.90;99.90
51873;DHT22;52863;52.504;13.480;2022-09-13T12:47:41;20.00;99.90
51873;DHT22;52863;52.504;13.480;2022-09-13T12:50:38;19.50;99.90
51873;DHT22;52863;52.504;13.480;2022-09-13T12:53:33;19.90;99.90
51873;DHT22;52863;52.504;13.480;2022-09-13T12:56:15;19.90;99.90
51873;DHT22;52863;52.504;13.480;2022-09-13T12:59:03;19.90;99.90
51873;DHT22;52863;52.504;13.480;2022-09-13T13:04:08;19.90;99.90
51873;DHT22;52863;52.504;13.480;2022-09-13T13:06:46;19.90;99.90
51873;DHT22;52863;52.504;13.480;2022-09-13T13:09:37;19.90;99.90
51873;DHT22;52863;52.504;13.480;2022-09-13T13:12:06;19.80;99.90
51873;DHT22;52863;52.504;13.480;2022-09-13T13:14:47;20.00;99.90
51873;DHT22;52863;52.504;13.480;2022-09-13T13:17:41;20.00;99.90
51873;DHT22;52863;52.504;13.480;2022-09-13T13:20:43;20.50;99.90
51873;DHT22;52863;52.504;13.480;2022-09-13T13:23:23;20.90;99.90
51873;DHT22;52863;52.504;13.480;2022-09-13T13:26:05;20.70;99.90
51873;DHT22;52863;52.504;13.480;2022-09-13T13:31:42;20.50;99.90
51873;DHT22;52863;52.504;13.480;2022-09-13T13:34:26;20.30;99.90
51873;DHT22;52863;52.504;13.480;2022-09-13T13:36:58;20.30;99.90
51873;DHT22;52863;52.504;13.480;2022-09-13T13:39:34;20.70;99.90
51873;DHT22;52863;52.504;13.480;2022-09-13T13:42:10;20.20;99.90
51873;DHT22;52863;52.504;13.480;2022-09-13T13:45:21;20.00;99.90
51873;DHT22;52863;52.504;13.480;2022-09-13T13:51:12;20.20;99.90
51873;DHT22;52863;52.504;13.480;2022-09-13T13:53:41;20.50;99.90
51873;DHT22;52863;52.504;13.480;2022-09-13T13:56:18;20.50;99.90
51873;DHT22;52863;52.504;13.480;2022-09-13T13:58:49;20.70;99.90
51873;DHT22;52863;52.504;13.480;2022-09-13T14:01:22;20.80;99.90
51873;DHT22;52863;52.504;13.480;2022-09-13T14:07:00;20.90;99.90
51873;DHT22;52863;52.504;13.480;2022-09-13T14:09:50;20.80;99.90
51873;DHT22;52863;52.504;13.480;2022-09-13T14:12:31;20.70;99.90
51873;DHT22;52863;52.504;13.480;2022-09-13T14:15:19;21.00;99.90
51873;DHT22;52863;52.504;13.480;2022-09-13T14:18:06;20.70;99.90
51873;DHT22;52863;52.504;13.480;2022-09-13T14:20:56;21.20;99.90
51873;DHT22;52863;52.504;13.480;2022-09-13T14:25:53;21.50;99.90
51873;DHT22;52863;52.504;13.480;2022-09-13T14:28:21;21.50;99.90
51873;DHT22;52863;52.504;13.480;2022-09-13T14:30:53;21.50;99.90
51873;DHT22;52863;52.504;13.480;2022-09-13T14:33:23;21.30;99.90
51873;DHT22;52863;52.504;13.480;2022-09-13T14:36:04;21.30;99.90
51873;DHT22;52863;52.504;13.480;2022-09-13T14:38:32;21.20;99.90
51873;DHT22;52863;52.504;13.480;2022-09-13T14:41:10;21.20;99.90
51873;DHT22;52863;52.504;13.480;2022-09-13T14:46:08;21.10;99.90
51873;DHT22;52863;52.504;13.480;2022-09-13T14:48:39;21.10;99.90
51873;DHT22;52863;52.504;13.480;2022-09-13T14:51:13;21.00;99.90
51873;DHT22;52863;52.504;13.480;2022-09-13T14:53:44;21.00;99.90
51873;DHT22;52863;52.504;13.480;2022-09-13T14:56:16;21.00;99.90
51873;DHT22;52863;52.504;13.480;2022-09-13T14:58:46;21.00;99.90
51873;DHT22;52863;52.504;13.480;2022-09-13T15:01:17;21.00;99.90
51873;DHT22;52863;52.504;13.480;2022-09-13T15:03:46;21.10;99.90
51873;DHT22;52863;52.504;13.480;2022-09-13T15:06:22;21.00;99.90
51873;DHT22;52863;52.504;13.480;2022-09-13T15:11:30;21.00;99.90
51873;DHT22;52863;52.504;13.480;2022-09-13T15:16:59;21.00;99.90
51873;DHT22;52863;52.504;13.480;2022-09-13T15:19:39;21.00;99.90
51873;DHT22;52863;52.504;13.480;2022-09-13T15:22:16;21.30;99.90
51873;DHT22;52863;52.504;13.480;2022-09-13T15:24:46;21.20;99.90
51873;DHT22;52863;52.504;13.480;2022-09-13T15:27:19;21.40;99.90
51873;DHT22;52863;52.504;13.480;2022-09-13T15:29:51;21.20;99.90
51873;DHT22;52863;52.504;13.480;2022-09-13T15:32:21;21.10;99.90
51873;DHT22;52863;52.504;13.480;2022-09-13T15:39:47;20.80;99.90
51873;DHT22;52863;52.504;13.480;2022-09-13T15:42:15;20.80;99.90
51873;DHT22;52863;52.504;13.480;2022-09-13T15:47:11;20.50;99.90
51873;DHT22;52863;52.504;13.480;2022-09-13T15:49:46;20.30;99.90
51873;DHT22;52863;52.504;13.480;2022-09-13T15:54:41;20.20;99.90
51873;DHT22;52863;52.504;13.480;2022-09-13T15:57:12;20.10;99.90
51873;DHT22;52863;52.504;13.480;2022-09-13T16:02:16;19.90;99.90
51873;DHT22;52863;52.504;13.480;2022-09-13T16:04:44;19.90;99.90
51873;DHT22;52863;52.504;13.480;2022-09-13T16:17:05;19.50;99.90
51873;DHT22;52863;52.504;13.480;2022-09-13T16:22:01;19.40;99.90
51873;DHT22;52863;52.504;13.480;2022-09-13T16:49:02;18.90;99.90
51873;DHT22;52863;52.504;13.480;2022-09-13T16:56:25;18.80;99.90
51873;DHT22;52863;52.504;13.480;2022-09-13T16:58:53;18.70;99.90
51873;DHT22;52863;52.504;13.480;2022-09-13T17:01:23;18.70;99.90
51873;DHT22;52863;52.504;13.480;2022-09-13T17:03:51;18.70;99.90
51873;DHT22;52863;52.504;13.480;2022-09-13T17:06:22;18.60;99.90
51873;DHT22;52863;52.504;13.480;2022-09-13T17:08:50;18.60;99.90
51873;DHT22;52863;52.504;13.480;2022-09-13T17:11:19;18.50;99.90
51873;DHT22;52863;52.504;13.480;2022-09-13T17:16:24;18.40;99.90
51873;DHT22;52863;52.504;13.480;2022-09-13T17:18:52;18.40;99.90
51873;DHT22;52863;52.504;13.480;2022-09-13T17:31:09;18.20;99.90
51873;DHT22;52863;52.504;13.480;2022-09-13T17:36:05;18.20;99.90
51873;DHT22;52863;52.504;13.480;2022-09-13T17:41:01;18.20;99.90
51873;DHT22;52863;52.504;13.480;2022-09-13T17:48:23;18.10;99.90
51873;DHT22;52863;52.504;13.480;2022-09-13T17:55:46;18.00;99.90
51873;DHT22;52863;52.504;13.480;2022-09-13T18:03:23;17.90;99.90
51873;DHT22;52863;52.504;13.480;2022-09-13T18:05:56;17.80;99.90
51873;DHT22;52863;52.504;13.480;2022-09-13T18:11:08;17.80;99.90
51873;DHT22;52863;52.504;13.480;2022-09-13T18:13:40;17.70;99.90
51873;DHT22;52863;52.504;13.480;2022-09-13T18:16:13;17.60;99.90
51873;DHT22;52863;52.504;13.480;2022-09-13T18:18:48;17.60;99.90
51873;DHT22;52863;52.504;13.480;2022-09-13T18:21:21;17.50;99.90
51873;DHT22;52863;52.504;13.480;2022-09-13T18:23:50;17.50;99.90
51873;DHT22;52863;52.504;13.480;2022-09-13T18:26:21;17.50;99.90
51873;DHT22;52863;52.504;13.480;2022-09-13T18:28:55;17.60;99.90
51873;DHT22;52863;52.504;13.480;2022-09-13T18:31:26;17.50;99.90
51873;DHT22;52863;52.504;13.480;2022-09-13T18:33:55;17.50;99.90
51873;DHT22;52863;52.504;13.480;2022-09-13T18:36:26;17.30;99.90
51873;DHT22;52863;52.504;13.480;2022-09-13T18:38:55;17.40;99.90
51873;DHT22;52863;52.504;13.480;2022-09-13T18:41:24;17.40;99.90
51873;DHT22;52863;52.504;13.480;2022-09-13T18:46:29;17.30;99.90
51873;DHT22;52863;52.504;13.480;2022-09-13T18:49:00;17.30;99.90
51873;DHT22;52863;52.504;13.480;2022-09-13T18:51:30;17.30;99.90
51873;DHT22;52863;52.504;13.480;2022-09-13T19:00:01;17.70;99.90
51873;DHT22;52863;52.504;13.480;2022-09-13T19:15:49;17.00;99.90
51873;DHT22;52863;52.504;13.480;2022-09-13T19:20:45;17.00;99.90
51873;DHT22;52863;52.504;13.480;2022-09-13T19:35:33;16.90;99.90
51873;DHT22;52863;52.504;13.480;2022-09-13T19:38:02;16.90;99.90
51873;DHT22;52863;52.504;13.480;2022-09-13T19:53:06;16.80;99.90
51873;DHT22;52863;52.504;13.480;2022-09-13T20:10:21;16.60;99.90
51873;DHT22;52863;52.504;13.480;2022-09-13T20:25:10;16.40;99.90
51873;DHT22;52863;52.504;13.480;2022-09-13T20:27:37;16.40;99.90
51873;DHT22;52863;52.504;13.480;2022-09-13T20:30:05;16.40;99.90
51873;DHT22;52863;52.504;13.480;2022-09-13T20:35:00;16.30;99.90
51873;DHT22;52863;52.504;13.480;2022-09-13T20:44:51;16.20;99.90
51873;DHT22;52863;52.504;13.480;2022-09-13T20:59:33;16.40;99.90
51873;DHT22;52863;52.504;13.480;2022-09-13T21:02:00;16.30;99.90
51873;DHT22;52863;52.504;13.480;2022-09-13T21:17:03;16.20;99.90
51873;DHT22;52863;52.504;13.480;2022-09-13T21:26:55;16.00;99.90
51873;DHT22;52863;52.504;13.480;2022-09-13T21:34:22;15.80;99.90
51873;DHT22;52863;52.504;13.480;2022-09-13T21:41:44;15.80;99.90
51873;DHT22;52863;52.504;13.480;2022-09-13T21:49:08;15.70;99.90
51873;DHT22;52863;52.504;13.480;2022-09-13T21:51:38;15.70;99.90
51873;DHT22;52863;52.504;13.480;2022-09-13T21:54:07;15.70;99.90
51873;DHT22;52863;52.504;13.480;2022-09-13T21:56:36;15.60;99.90
51873;DHT22;52863;52.504;13.480;2022-09-13T21:59:04;15.50;99.90
51873;DHT22;52863;52.504;13.480;2022-09-13T22:01:33;15.50;99.90
51873;DHT22;52863;52.504;13.480;2022-09-13T22:04:01;15.80;99.90
51873;DHT22;52863;52.504;13.480;2022-09-13T22:06:28;15.50;99.90
51873;DHT22;52863;52.504;13.480;2022-09-13T22:09:02;15.40;99.90
51873;DHT22;52863;52.504;13.480;2022-09-13T22:11:30;15.30;99.90
51873;DHT22;52863;52.504;13.480;2022-09-13T22:16:29;15.30;99.90
51873;DHT22;52863;52.504;13.480;2022-09-13T22:18:58;15.20;99.90
51873;DHT22;52863;52.504;13.480;2022-09-13T22:21:27;15.20;99.90
51873;DHT22;52863;52.504;13.480;2022-09-13T22:26:34;15.10;99.90
51873;DHT22;52863;52.504;13.480;2022-09-13T22:31:34;15.20;99.90
51873;DHT22;52863;52.504;13.480;2022-09-13T22:34:06;15.10;99.90
51873;DHT22;52863;52.504;13.480;2022-09-13T22:41:29;15.00;99.90
51873;DHT22;52863;52.504;13.480;2022-09-13T22:43:57;15.00;99.90
51873;DHT22;52863;52.504;13.480;2022-09-13T22:46:28;14.90;99.90
51873;DHT22;52863;52.504;13.480;2022-09-13T22:48:55;14.80;99.90
51873;DHT22;52863;52.504;13.480;2022-09-13T22:53:51;14.80;99.90
51873;DHT22;52863;52.504;13.480;2022-09-13T22:56:20;14.70;99.90
51873;DHT22;52863;52.504;13.480;2022-09-13T22:58:51;14.70;99.90
51873;DHT22;52863;52.504;13.480;2022-09-13T23:03:47;14.70;99.90
51873;DHT22;52863;52.504;13.480;2022-09-13T23:06:16;14.70;99.90
51873;DHT22;52863;52.504;13.480;2022-09-13T23:08:44;14.70;99.90
51873;DHT22;52863;52.504;13.480;2022-09-13T23:11:12;14.70;99.90
51873;DHT22;52863;52.504;13.480;2022-09-13T23:13:39;14.70;99.90
51873;DHT22;52863;52.504;13.480;2022-09-13T23:16:12;14.60;99.90
51873;DHT22;52863;52.504;13.480;2022-09-13T23:26:05;14.60;99.90
51873;DHT22;52863;52.504;13.480;2022-09-13T23:31:11;14.40;99.90
51873;DHT22;52863;52.504;13.480;2022-09-13T23:33:39;14.40;99.90
51873;DHT22;52863;52.504;13.480;2022-09-13T23:48:21;14.40;99.90
